createdAt,value
2019-03-22T00:01:34.322Z,96.93
2019-03-22T00:06:38.137Z,92.23
2019-03-22T00:11:41.554Z,106.97
2019-03-22T00:16:44.755Z,132.70
2019-03-22T00:21:48.165Z,112.17
2019-03-22T00:26:52.903Z,136.27
2019-03-22T00:31:56.020Z,136.10
2019-03-22T00:36:59.855Z,123.77
2019-03-22T00:42:02.554Z,112.23
2019-03-22T00:47:06.053Z,113.37
2019-03-22T00:52:10.172Z,120.50
2019-03-22T00:57:14.032Z,128.00
2019-03-22T01:02:17.145Z,156.83
2019-03-22T01:07:20.935Z,104.70
2019-03-22T01:12:25.054Z,122.70
2019-03-22T01:17:28.570Z,125.03
2019-03-22T01:22:31.981Z,118.47
2019-03-22T01:27:40.688Z,144.10
2019-03-22T01:32:41.922Z,126.30
2019-03-22T01:37:45.403Z,125.90
2019-03-22T01:42:49.245Z,111.60
2019-03-22T01:47:52.952Z,94.57
2019-03-22T01:52:56.812Z,78.23
2019-03-22T01:58:00.646Z,75.93
2019-03-22T02:03:04.467Z,86.80
2019-03-22T02:08:07.951Z,62.77
2019-03-22T02:13:11.474Z,71.40
2019-03-22T02:18:15.311Z,70.87
2019-03-22T02:23:18.734Z,67.60
2019-03-22T02:28:22.947Z,66.63
2019-03-22T02:33:27.089Z,58.27
2019-03-22T02:38:30.825Z,55.03
2019-03-22T02:43:34.638Z,67.90
2019-03-22T02:48:37.748Z,55.53
2019-03-22T02:53:41.580Z,67.03
2019-03-22T02:58:45.059Z,53.77
2019-03-22T03:03:48.906Z,42.70
2019-03-22T03:08:52.743Z,43.40
2019-03-22T03:13:57.544Z,32.03
2019-03-22T03:19:01.419Z,36.17
2019-03-22T03:24:05.202Z,27.33
2019-03-22T03:29:08.843Z,31.80
2019-03-22T03:34:12.305Z,31.13
2019-03-22T03:39:15.762Z,34.77
2019-03-22T03:44:19.314Z,30.60
2019-03-22T03:49:22.833Z,30.20
2019-03-22T03:54:25.909Z,25.80
2019-03-22T03:59:30.173Z,18.60
2019-03-22T04:04:33.927Z,20.00
2019-03-22T04:09:38.138Z,20.97
2019-03-22T04:14:41.918Z,13.93
2019-03-22T04:19:47.041Z,23.43
2019-03-22T04:24:50.482Z,17.10
2019-03-22T04:29:53.833Z,16.40
2019-03-22T04:34:57.370Z,15.70
2019-03-22T04:40:00.542Z,10.70
2019-03-22T04:45:05.702Z,15.77
2019-03-22T04:50:08.988Z,10.60
2019-03-22T04:55:14.028Z,9.63
2019-03-22T05:00:19.012Z,7.57
2019-03-22T05:05:23.020Z,11.17
2019-03-22T05:10:27.238Z,7.30
2019-03-22T05:15:32.883Z,9.07
2019-03-22T05:20:38.534Z,10.87
2019-03-22T05:25:44.458Z,10.33
2019-03-22T05:31:39.845Z,10.97
2019-03-22T05:36:43.701Z,13.40
2019-03-22T05:41:46.466Z,11.07
2019-03-22T05:46:49.835Z,9.30
2019-03-22T05:51:53.702Z,10.43
2019-03-22T05:56:57.589Z,10.80
2019-03-22T06:02:01.136Z,11.90
2019-03-22T06:07:04.980Z,15.37
2019-03-22T06:12:08.058Z,15.40
2019-03-22T06:17:11.900Z,17.03
2019-03-22T06:22:16.022Z,15.53
2019-03-22T06:27:19.441Z,15.83
2019-03-22T06:32:23.688Z,15.37
2019-03-22T06:37:27.781Z,33.60
2019-03-22T06:42:31.992Z,18.00
2019-03-22T06:47:35.140Z,25.93
2019-03-22T06:52:38.263Z,25.47
2019-03-22T06:57:42.142Z,27.43
2019-03-22T07:02:45.604Z,30.60
2019-03-22T07:07:49.090Z,28.23
2019-03-22T07:12:53.246Z,38.30
2019-03-22T07:17:56.927Z,35.93
2019-03-22T07:23:01.095Z,34.87
2019-03-22T07:28:04.934Z,38.97
2019-03-22T07:33:08.871Z,36.30
2019-03-22T07:38:12.676Z,38.10
2019-03-22T07:43:16.510Z,27.73
2019-03-22T07:48:19.942Z,32.50
2019-03-22T07:53:23.752Z,28.20
2019-03-22T07:58:27.222Z,23.77
2019-03-22T08:03:31.746Z,17.70
2019-03-22T08:08:35.633Z,22.73
2019-03-22T08:13:39.120Z,17.40
2019-03-22T08:18:43.326Z,19.60
2019-03-22T08:23:47.120Z,28.70
2019-03-22T08:28:51.345Z,21.73
2019-03-22T08:33:55.167Z,22.90
2019-03-22T08:38:59.402Z,18.27
2019-03-22T08:44:03.229Z,21.53
2019-03-22T08:49:09.467Z,17.07
2019-03-22T08:54:13.028Z,18.50
2019-03-22T08:59:16.846Z,13.80
2019-03-22T09:04:20.353Z,16.00
2019-03-22T09:09:24.184Z,20.27
2019-03-22T09:14:28.430Z,36.57
2019-03-22T09:19:32.635Z,32.33
2019-03-22T09:24:39.414Z,43.87
2019-03-22T09:29:41.444Z,44.83
2019-03-22T09:34:45.337Z,45.43
2019-03-22T09:39:49.282Z,39.60
2019-03-22T09:44:52.322Z,40.10
2019-03-22T09:49:56.466Z,29.97
2019-03-22T09:55:12.449Z,31.60
2019-03-22T10:00:06.948Z,21.93
2019-03-22T10:05:10.380Z,33.77
2019-03-22T10:10:14.189Z,28.95
2019-03-22T10:15:17.855Z,32.83
2019-03-22T10:20:22.226Z,41.67
2019-03-22T10:25:27.384Z,48.53
2019-03-22T10:30:31.076Z,46.53
2019-03-22T10:35:34.659Z,57.73
2019-03-22T10:40:38.212Z,68.77
2019-03-22T10:45:42.007Z,70.50
2019-03-22T10:50:45.179Z,79.03
2019-03-22T10:55:49.033Z,112.13
2019-03-22T11:00:53.253Z,98.63
2019-03-22T11:05:57.022Z,138.23
2019-03-22T11:11:00.620Z,124.67
2019-03-22T11:16:04.524Z,142.47
2019-03-22T11:21:08.046Z,153.93
2019-03-22T11:26:12.372Z,151.43
2019-03-22T11:31:15.993Z,172.40
2019-03-22T11:36:19.123Z,164.43
2019-03-22T11:41:22.939Z,164.83
2019-03-22T11:46:26.442Z,183.23
2019-03-22T11:51:30.783Z,208.40
2019-03-22T11:56:34.888Z,222.97
2019-03-22T12:01:38.314Z,198.73
2019-03-22T12:06:42.252Z,210.57
2019-03-22T12:11:45.794Z,195.73
2019-03-22T12:16:49.311Z,192.67
2019-03-22T12:21:53.214Z,194.07
2019-03-22T12:26:57.395Z,201.77
2019-03-22T12:32:02.871Z,185.67
2019-03-22T12:37:06.497Z,190.00
2019-03-22T12:42:11.997Z,186.80
2019-03-22T12:47:16.231Z,188.27
2019-03-22T12:52:19.648Z,193.50
2019-03-22T12:57:23.479Z,187.17
2019-03-22T13:02:27.575Z,208.63
2019-03-22T13:07:31.746Z,185.67
2019-03-22T13:12:34.879Z,171.97
2019-03-22T13:17:38.759Z,190.47
2019-03-22T13:22:42.242Z,195.77
2019-03-22T13:27:45.797Z,179.50
2019-03-22T13:32:52.212Z,177.93
2019-03-22T13:37:55.059Z,182.37
2019-03-22T13:42:58.905Z,171.73
2019-03-22T13:48:04.588Z,172.27
2019-03-22T13:53:07.996Z,173.83
2019-03-22T13:58:12.240Z,175.83
2019-03-22T14:03:15.568Z,166.17
2019-03-22T14:08:20.366Z,177.33
2019-03-22T14:13:23.517Z,171.20
2019-03-22T14:18:26.997Z,171.43
2019-03-22T14:23:30.827Z,139.33
2019-03-22T14:28:34.756Z,134.77
2019-03-22T14:33:38.273Z,129.67
2019-03-22T14:38:41.750Z,134.50
2019-03-22T14:43:45.885Z,126.37
2019-03-22T14:48:49.317Z,118.87
2019-03-22T14:53:53.214Z,121.40
2019-03-22T14:58:58.022Z,119.87
2019-03-22T15:04:02.070Z,64.73
2019-03-22T15:09:07.462Z,78.07
2019-03-22T15:14:21.350Z,91.93
2019-03-22T15:19:56.840Z,83.20
2019-03-22T15:25:19.100Z,71.23
2019-03-22T15:30:50.902Z,79.17
2019-03-22T15:36:29.324Z,66.67
2019-03-22T15:41:32.816Z,59.10
2019-03-22T15:46:36.248Z,70.40
2019-03-22T15:51:40.134Z,67.87
2019-03-22T15:56:44.812Z,61.13
2019-03-22T16:01:49.002Z,60.77
2019-03-22T16:06:52.870Z,60.40
2019-03-22T16:11:56.371Z,59.50
2019-03-22T16:17:00.206Z,55.63
2019-03-22T16:22:04.032Z,57.50
2019-03-22T16:27:07.551Z,53.90
2019-03-22T16:32:11.081Z,55.33
2019-03-22T16:37:16.343Z,50.33
2019-03-22T16:42:20.564Z,58.23
2019-03-22T16:47:24.697Z,52.63
2019-03-22T16:52:29.060Z,56.13
2019-03-22T16:57:32.820Z,58.73
2019-03-22T17:02:36.987Z,56.43
2019-03-22T17:07:40.357Z,69.80
2019-03-22T17:12:44.233Z,64.17
2019-03-22T17:17:48.339Z,56.17
2019-03-22T17:22:52.600Z,65.50
2019-03-22T17:27:56.427Z,64.20
2019-03-22T17:33:00.449Z,68.70
2019-03-22T17:38:04.581Z,57.97
2019-03-22T17:43:08.475Z,69.87
2019-03-22T17:48:12.332Z,69.20
2019-03-22T17:53:15.745Z,80.07
2019-03-22T17:58:19.275Z,77.00
2019-03-22T18:03:23.207Z,77.87
2019-03-22T18:08:27.127Z,79.10
2019-03-22T18:13:31.034Z,73.53
2019-03-22T18:18:34.979Z,88.83
2019-03-22T18:23:39.446Z,70.20
2019-03-22T18:28:43.675Z,78.17
2019-03-22T18:33:48.469Z,86.13
2019-03-22T18:38:52.433Z,79.47
2019-03-22T18:43:56.059Z,85.50
2019-03-22T18:49:00.080Z,75.80
2019-03-22T18:54:04.329Z,83.40
2019-03-22T18:59:08.600Z,95.90
2019-03-22T19:04:12.654Z,92.10
2019-03-22T19:09:16.577Z,91.23
2019-03-22T19:14:20.860Z,96.30
2019-03-22T19:19:25.464Z,115.90
2019-03-22T19:24:30.053Z,84.67
2019-03-22T19:29:34.160Z,98.17
2019-03-22T19:34:37.466Z,92.30
2019-03-22T19:39:42.663Z,95.93
2019-03-22T19:45:06.881Z,90.43
2019-03-22T19:50:14.280Z,95.03
2019-03-22T19:55:18.980Z,96.50
2019-03-22T20:00:23.652Z,108.37
2019-03-22T20:05:31.672Z,96.17
2019-03-22T20:10:35.506Z,106.93
2019-03-22T20:15:39.001Z,108.73
2019-03-22T20:20:43.368Z,105.43
2019-03-22T20:25:51.601Z,122.40
2019-03-22T20:30:55.782Z,120.63
2019-03-22T20:36:02.298Z,136.13
2019-03-22T20:41:08.401Z,125.60
2019-03-22T20:46:12.936Z,128.27
2019-03-22T20:51:25.298Z,134.23
2019-03-22T20:56:29.929Z,132.10
2019-03-22T21:01:38.187Z,137.27
2019-03-22T21:06:42.555Z,143.10
2019-03-22T21:11:47.438Z,142.13
2019-03-22T21:16:51.005Z,142.10
2019-03-22T21:21:55.329Z,146.93
2019-03-22T21:26:59.971Z,148.03
2019-03-22T21:32:04.681Z,138.87
2019-03-22T21:37:08.769Z,138.73
2019-03-22T21:42:13.453Z,158.80
2019-03-22T21:47:19.623Z,160.43
2019-03-22T21:52:23.801Z,167.43
2019-03-22T21:57:27.378Z,157.37
2019-03-22T22:02:30.173Z,141.90
2019-03-22T22:07:34.332Z,153.83
2019-03-22T22:12:38.281Z,171.70
2019-03-22T22:17:42.110Z,171.80
2019-03-22T22:22:45.761Z,188.67
2019-03-22T22:27:49.580Z,171.80
2019-03-22T22:32:53.121Z,181.13
2019-03-22T22:37:56.654Z,185.47
2019-03-22T22:43:00.487Z,177.80
2019-03-22T22:48:04.739Z,197.10
2019-03-22T22:53:10.204Z,182.13
2019-03-22T22:58:14.037Z,200.30
2019-03-22T23:03:18.078Z,190.73
2019-03-22T23:08:21.894Z,202.00
2019-03-22T23:13:25.703Z,206.10
2019-03-22T23:18:29.789Z,197.47
2019-03-22T23:23:33.656Z,179.30
2019-03-22T23:28:36.962Z,204.37
2019-03-22T23:33:40.391Z,195.57
2019-03-22T23:38:44.206Z,206.67
2019-03-22T23:43:47.762Z,195.30
2019-03-22T23:48:51.241Z,201.03
2019-03-22T23:53:55.060Z,181.30
2019-03-22T23:58:58.909Z,225.90
